Alston, Georgia
Current Conditions -  °F | °C
As of 3:35 AM on Friday 21 Nov 2014 (Local Time) from KVDI Reporting Station
Clear Clear  
Wind Chill: 45°   Ceiling: Unl
Heat Index: 45°   Visibility: 10mi
Dew Point: 41°   Wind: 0mph
Humidity: 87%   Direction: NA
Pressure: 30.28"   Gusts: NA
Location:  32.08°N, 82.48°W
Report Text: KVDI 210835Z AUTO 00000KT 10SM CLR 07/05 A3028 RMK AO2
Loading
Personal Weather Stations






























Interactive Weather Map New forecast layout! Learn more

10-Day Weather Forecast

Advertisements
Track Severe Weather on mobile